createdAt,value
2022-08-28T00:00:46.963Z,101075.00
2022-08-28T00:02:03.527Z,101074.20
2022-08-28T00:03:19.898Z,101075.39
2022-08-28T00:04:36.616Z,101077.58
2022-08-28T00:05:53.049Z,101080.96
2022-08-28T00:07:09.520Z,101076.03
2022-08-28T00:08:25.899Z,101079.89
2022-08-28T00:09:44.274Z,101080.38
2022-08-28T00:11:00.981Z,101079.41
2022-08-28T00:12:17.394Z,101079.89
2022-08-28T00:13:33.761Z,101080.38
2022-08-28T00:14:50.142Z,101078.61
2022-08-28T00:16:06.560Z,101082.41
2022-08-28T00:17:23.280Z,101081.12
2022-08-28T00:18:39.629Z,101079.67
2022-08-28T00:19:56.015Z,101084.23
2022-08-28T00:21:12.539Z,101081.34
2022-08-28T00:22:28.987Z,101081.98
2022-08-28T00:23:45.630Z,101085.40
2022-08-28T00:25:02.104Z,101086.49
2022-08-28T00:26:18.496Z,101090.03
2022-08-28T00:27:34.909Z,101087.94
2022-08-28T00:28:51.288Z,101087.94
2022-08-28T00:30:08.023Z,101087.71
2022-08-28T00:31:24.440Z,101083.91
2022-08-28T00:32:40.829Z,101084.75
2022-08-28T00:33:57.220Z,101080.31
2022-08-28T00:35:13.600Z,101084.40
2022-08-28T00:36:31.115Z,101085.14
2022-08-28T00:37:48.225Z,101085.94
2022-08-28T00:39:04.653Z,101084.91
2022-08-28T00:40:28.600Z,101082.34
2022-08-28T00:41:42.296Z,101085.14
2022-08-28T00:42:59.051Z,101081.05
2022-08-28T00:44:15.415Z,101083.21
2022-08-28T00:45:34.835Z,101080.25
2022-08-28T00:46:53.066Z,101083.95
2022-08-28T00:48:09.476Z,101079.12
2022-08-28T00:49:26.198Z,101081.38
2022-08-28T00:50:42.629Z,101082.81
2022-08-28T00:51:58.998Z,101082.50
2022-08-28T00:53:15.388Z,101081.86
2022-08-28T00:54:31.741Z,101080.63
2022-08-28T00:55:48.450Z,101082.34
2022-08-28T00:57:04.812Z,101085.23
2022-08-28T00:58:21.213Z,101084.50
2022-08-28T00:59:37.622Z,101083.78
2022-08-28T01:00:54.052Z,101085.39
2022-08-28T01:02:10.724Z,101089.91
2022-08-28T01:03:27.541Z,101087.81
2022-08-28T01:04:43.904Z,101090.28
2022-08-28T01:06:00.332Z,101091.03
2022-08-28T01:07:16.696Z,101087.97
2022-08-28T01:08:33.368Z,101093.59
2022-08-28T01:09:50.586Z,101094.89
2022-08-28T01:11:07.027Z,101098.01
2022-08-28T01:12:23.397Z,101094.56
2022-08-28T01:13:39.817Z,101096.66
2022-08-28T01:14:56.248Z,101092.31
2022-08-28T01:16:12.711Z,101094.80
2022-08-28T01:17:29.072Z,101092.09
2022-08-28T01:18:45.508Z,101095.69
2022-08-28T01:20:01.926Z,101099.72
2022-08-28T01:21:20.368Z,101094.08
2022-08-28T01:22:37.052Z,101100.36
2022-08-28T01:23:53.452Z,101096.91
2022-08-28T01:25:09.864Z,101098.91
2022-08-28T01:26:26.253Z,101097.14
2022-08-28T01:27:42.961Z,101099.23
2022-08-28T01:28:59.343Z,101099.16
2022-08-28T01:30:15.739Z,101100.94
2022-08-28T01:31:32.156Z,101100.03
2022-08-28T01:32:48.501Z,101095.69
2022-08-28T01:34:05.165Z,101101.48
2022-08-28T01:35:21.557Z,101099.39
2022-08-28T01:36:37.948Z,101102.28
2022-08-28T01:37:54.349Z,101101.26
2022-08-28T01:39:10.761Z,101100.36
2022-08-28T01:40:27.475Z,101105.77
2022-08-28T01:41:43.840Z,101101.64
2022-08-28T01:43:00.211Z,101103.67
2022-08-28T01:44:17.980Z,101106.56
2022-08-28T01:45:34.652Z,101109.53
2022-08-28T01:46:51.337Z,101108.98
2022-08-28T01:48:08.747Z,101112.68
2022-08-28T01:49:25.133Z,101113.48
2022-08-28T01:50:41.504Z,101115.80
2022-08-28T01:51:57.927Z,101119.34
2022-08-28T01:53:14.606Z,101120.40
2022-08-28T01:54:31.186Z,101121.75
2022-08-28T01:55:48.557Z,101122.66
2022-08-28T01:57:04.928Z,101119.11
2022-08-28T01:58:21.409Z,101122.27
2022-08-28T01:59:38.058Z,101122.72
2022-08-28T02:00:57.420Z,101125.29
2022-08-28T02:02:13.781Z,101123.71
2022-08-28T02:03:30.213Z,101128.54
2022-08-28T02:04:48.325Z,101127.96
2022-08-28T02:06:05.092Z,101123.07
2022-08-28T02:07:21.463Z,101131.17
2022-08-28T02:08:37.891Z,101129.25
2022-08-28T02:09:54.268Z,101127.96
2022-08-28T02:11:10.653Z,101127.73
2022-08-28T02:12:27.315Z,101123.87
2022-08-28T02:13:43.735Z,101128.28
2022-08-28T02:15:00.146Z,101122.42
2022-08-28T02:16:16.565Z,101124.67
2022-08-28T02:17:32.917Z,101127.02
2022-08-28T02:18:49.617Z,101129.34
2022-08-28T02:20:06.009Z,101130.95
2022-08-28T02:21:24.348Z,101132.08
2022-08-28T02:22:40.727Z,101135.23
2022-08-28T02:23:57.249Z,101130.95
2022-08-28T02:25:14.042Z,101136.42
2022-08-28T02:26:30.420Z,101133.46
2022-08-28T02:27:46.792Z,101133.20
2022-08-28T02:29:03.174Z,101132.49
2022-08-28T02:30:19.589Z,101132.88
2022-08-28T02:31:36.242Z,101131.27
2022-08-28T02:32:52.607Z,101134.97
2022-08-28T02:34:08.995Z,101135.55
2022-08-28T02:35:26.347Z,101136.26
2022-08-28T02:36:42.714Z,101134.97
2022-08-28T02:38:00.563Z,101132.75
2022-08-28T02:39:16.979Z,101137.16
2022-08-28T02:40:33.398Z,101137.55
2022-08-28T02:41:49.965Z,101139.64
2022-08-28T02:43:06.329Z,101135.70
2022-08-28T02:44:23.008Z,101138.06
2022-08-28T02:45:39.381Z,101142.79
2022-08-28T02:46:57.819Z,101141.24
2022-08-28T02:48:16.931Z,101142.72
2022-08-28T02:49:35.571Z,101141.98
2022-08-28T02:50:53.090Z,101142.15
2022-08-28T02:52:09.529Z,101145.27
2022-08-28T02:53:25.912Z,101145.04
2022-08-28T02:54:42.302Z,101149.00
2022-08-28T02:55:58.675Z,101147.61
2022-08-28T02:57:15.365Z,101157.36
2022-08-28T02:58:31.745Z,101152.38
2022-08-28T02:59:48.135Z,101153.98
2022-08-28T03:01:04.521Z,101156.88
2022-08-28T03:02:20.944Z,101158.55
2022-08-28T03:03:37.576Z,101157.84
2022-08-28T03:04:57.338Z,101157.17
2022-08-28T03:06:13.710Z,101152.38
2022-08-28T03:07:30.128Z,101154.69
2022-08-28T03:08:46.500Z,101159.52
2022-08-28T03:10:03.169Z,101156.07
2022-08-28T03:11:19.571Z,101159.78
2022-08-28T03:12:35.992Z,101164.44
2022-08-28T03:13:52.361Z,101162.19
2022-08-28T03:15:08.739Z,101162.41
2022-08-28T03:16:25.438Z,101163.95
2022-08-28T03:17:41.910Z,101162.58
2022-08-28T03:18:58.325Z,101160.48
2022-08-28T03:20:14.752Z,101159.77
2022-08-28T03:21:31.155Z,101158.32
2022-08-28T03:22:47.814Z,101160.89
2022-08-28T03:24:04.184Z,101157.94
2022-08-28T03:25:20.605Z,101163.31
2022-08-28T03:26:36.976Z,101160.58
2022-08-28T03:27:53.382Z,101160.58
2022-08-28T03:29:10.048Z,101159.61
2022-08-28T03:30:26.482Z,101159.29
2022-08-28T03:31:42.829Z,101158.64
2022-08-28T03:32:59.219Z,101159.45
2022-08-28T03:34:15.580Z,101158.97
2022-08-28T03:35:32.278Z,101157.20
2022-08-28T03:36:48.641Z,101156.06
2022-08-28T03:38:05.023Z,101155.84
2022-08-28T03:39:21.393Z,101157.03
2022-08-28T03:40:37.910Z,101158.80
2022-08-28T03:41:54.593Z,101157.20
2022-08-28T03:43:11.063Z,101157.52
2022-08-28T03:44:27.445Z,101159.28
2022-08-28T03:45:43.901Z,101156.58
2022-08-28T03:47:00.256Z,101156.27
2022-08-28T03:48:16.916Z,101159.70
2022-08-28T03:49:33.289Z,101161.15
2022-08-28T03:50:49.698Z,101156.33
2022-08-28T03:52:08.208Z,101158.52
2022-08-28T03:53:24.589Z,101157.67
2022-08-28T03:54:41.249Z,101159.31
2022-08-28T03:55:58.509Z,101160.92
2022-08-28T03:57:14.881Z,101159.31
2022-08-28T03:58:31.270Z,101161.89
2022-08-28T03:59:47.642Z,101164.14
2022-08-28T04:01:04.421Z,101163.66
2022-08-28T04:02:20.798Z,101163.81
2022-08-28T04:03:37.237Z,101168.64
2022-08-28T04:04:53.625Z,101168.97
2022-08-28T04:06:10.037Z,101170.09
2022-08-28T04:07:26.696Z,101165.91
2022-08-28T04:08:43.086Z,101167.36
2022-08-28T04:09:59.445Z,101168.48
2022-08-28T04:11:15.864Z,101168.65
2022-08-28T04:12:35.220Z,101168.16
2022-08-28T04:13:52.137Z,101166.80
2022-08-28T04:15:08.498Z,101170.09
2022-08-28T04:16:24.953Z,101169.83
2022-08-28T04:17:41.329Z,101169.77
2022-08-28T04:18:57.710Z,101165.27
2022-08-28T04:20:14.380Z,101168.16
2022-08-28T04:21:30.772Z,101165.03
2022-08-28T04:22:47.131Z,101165.91
2022-08-28T04:24:06.703Z,101167.45
2022-08-28T04:25:24.763Z,101168.64
2022-08-28T04:26:41.963Z,101173.47
2022-08-28T04:27:58.383Z,101171.64
2022-08-28T04:29:14.776Z,101174.44
2022-08-28T04:30:31.156Z,101174.50
2022-08-28T04:31:47.580Z,101173.63
2022-08-28T04:33:04.246Z,101175.56
2022-08-28T04:34:20.635Z,101174.44
2022-08-28T04:35:37.007Z,101170.12
2022-08-28T04:36:53.410Z,101175.11
2022-08-28T04:38:09.920Z,101174.05
2022-08-28T04:39:26.579Z,101175.88
2022-08-28T04:40:42.949Z,101175.48
2022-08-28T04:41:59.331Z,101176.08
2022-08-28T04:43:15.731Z,101177.20
2022-08-28T04:44:32.121Z,101182.51
2022-08-28T04:45:48.771Z,101177.58
2022-08-28T04:47:05.149Z,101185.89
2022-08-28T04:48:22.683Z,101186.17
2022-08-28T04:49:39.074Z,101185.47
2022-08-28T04:50:55.485Z,101187.50
2022-08-28T04:52:13.206Z,101185.56
2022-08-28T04:53:29.594Z,101181.92
2022-08-28T04:54:46.933Z,101188.20
2022-08-28T04:56:03.307Z,101183.47
2022-08-28T04:57:19.717Z,101178.80
2022-08-28T04:58:36.380Z,101180.48
2022-08-28T04:59:52.810Z,101178.00
2022-08-28T05:01:09.209Z,101181.06
2022-08-28T05:02:25.690Z,101182.18
2022-08-28T05:03:42.140Z,101181.86
2022-08-28T05:04:58.809Z,101187.66
2022-08-28T05:06:15.190Z,101186.84
2022-08-28T05:07:31.581Z,101189.91
2022-08-28T05:08:47.982Z,101191.83
2022-08-28T05:10:04.380Z,101189.09
2022-08-28T05:11:32.880Z,101190.87
2022-08-28T05:12:42.353Z,101186.78
2022-08-28T05:13:58.751Z,101187.42
2022-08-28T05:15:15.145Z,101186.62
2022-08-28T05:16:31.581Z,101188.39
2022-08-28T05:17:48.286Z,101188.78
2022-08-28T05:19:04.714Z,101190.00
2022-08-28T05:20:21.146Z,101188.23
2022-08-28T05:21:37.517Z,101194.34
2022-08-28T05:22:53.900Z,101190.55
2022-08-28T05:24:10.275Z,101192.95
2022-08-28T05:25:26.970Z,101190.16
2022-08-28T05:26:43.339Z,101198.69
2022-08-28T05:27:59.721Z,101200.19
2022-08-28T05:29:16.091Z,101203.73
2022-08-28T05:30:32.521Z,101202.12
2022-08-28T05:31:49.831Z,101204.64
2022-08-28T05:33:06.193Z,101205.53
2022-08-28T05:34:22.566Z,101203.66
2022-08-28T05:35:38.992Z,101203.98
2022-08-28T05:36:55.365Z,101203.66
2022-08-28T05:38:12.199Z,101205.12
2022-08-28T05:39:28.634Z,101209.30
2022-08-28T05:40:45.063Z,101209.36
2022-08-28T05:42:01.586Z,101212.52
2022-08-28T05:43:17.974Z,101213.38
2022-08-28T05:44:34.657Z,101211.30
2022-08-28T05:45:53.022Z,101212.67
2022-08-28T05:47:09.407Z,101213.97
2022-08-28T05:48:25.798Z,101215.58
2022-08-28T05:49:46.769Z,101209.78
2022-08-28T05:51:03.459Z,101217.56
2022-08-28T05:52:19.830Z,101217.24
2022-08-28T05:53:36.232Z,101215.50
2022-08-28T05:54:54.583Z,101215.02
2022-08-28T05:56:10.962Z,101215.95
2022-08-28T05:57:27.605Z,101217.34
2022-08-28T05:58:44.003Z,101222.00
2022-08-28T06:00:00.416Z,101220.97
2022-08-28T06:01:18.764Z,101227.06
2022-08-28T06:02:35.137Z,101226.25
2022-08-28T06:03:51.877Z,101225.45
2022-08-28T06:05:08.227Z,101225.39
2022-08-28T06:06:26.567Z,101227.38
2022-08-28T06:07:42.949Z,101229.08
2022-08-28T06:09:01.379Z,101223.84
2022-08-28T06:10:18.038Z,101230.27
2022-08-28T06:11:35.571Z,101228.92
2022-08-28T06:12:51.989Z,101228.83
2022-08-28T06:14:10.340Z,101229.79
2022-08-28T06:15:28.684Z,101227.95
2022-08-28T06:16:45.362Z,101230.91
2022-08-28T06:18:03.730Z,101229.98
2022-08-28T06:19:20.123Z,101235.27
2022-08-28T06:20:36.483Z,101233.17
2022-08-28T06:21:52.925Z,101229.98
2022-08-28T06:23:09.584Z,101228.70
2022-08-28T06:24:27.936Z,101232.84
2022-08-28T06:25:49.375Z,101234.80
2022-08-28T06:27:05.756Z,101234.00
2022-08-28T06:28:22.148Z,101234.72
2022-08-28T06:29:38.795Z,101240.83
2022-08-28T06:31:23.426Z,101242.17
2022-08-28T06:32:18.418Z,101243.49
2022-08-28T06:33:34.818Z,101244.75
2022-08-28T06:34:53.148Z,101247.84
2022-08-28T06:36:09.859Z,101247.48
2022-08-28T06:37:26.230Z,101252.08
2022-08-28T06:38:42.620Z,101254.17
2022-08-28T06:39:59.064Z,101256.75
2022-08-28T06:41:15.610Z,101254.41
2022-08-28T06:42:32.396Z,101248.48
2022-08-28T06:43:48.822Z,101250.48
2022-08-28T06:45:05.204Z,101254.41
2022-08-28T06:46:21.754Z,101249.19
2022-08-28T06:47:38.217Z,101250.09
2022-08-28T06:48:54.968Z,101253.47
2022-08-28T06:50:11.326Z,101249.12
2022-08-28T06:51:28.045Z,101247.81
2022-08-28T06:52:44.448Z,101248.16
2022-08-28T06:54:02.797Z,101252.89
2022-08-28T06:55:19.469Z,101248.00
2022-08-28T06:56:37.844Z,101250.86
2022-08-28T06:57:54.218Z,101247.58
2022-08-28T06:59:12.569Z,101248.47
2022-08-28T07:00:30.911Z,101251.12
2022-08-28T07:01:49.762Z,101251.53
2022-08-28T07:03:06.261Z,101253.53
2022-08-28T07:04:22.661Z,101252.17
2022-08-28T07:05:39.066Z,101256.69
2022-08-28T07:06:55.521Z,101254.11
2022-08-28T07:08:12.364Z,101255.88
2022-08-28T07:09:30.764Z,101257.33
2022-08-28T07:10:47.134Z,101253.69
2022-08-28T07:12:03.556Z,101254.59
2022-08-28T07:13:21.904Z,101255.45
2022-08-28T07:14:38.586Z,101256.42
2022-08-28T07:15:55.063Z,101261.83
2022-08-28T07:17:11.505Z,101261.25
2022-08-28T07:18:27.877Z,101262.15
2022-08-28T07:19:44.326Z,101263.92
2022-08-28T07:21:01.008Z,101261.83
2022-08-28T07:22:17.387Z,101265.44
2022-08-28T07:23:35.783Z,101265.38
2022-08-28T07:24:52.288Z,101265.34
2022-08-28T07:26:10.619Z,101266.47
2022-08-28T07:27:27.293Z,101260.06
2022-08-28T07:28:43.681Z,101266.30
2022-08-28T07:30:03.908Z,101273.55
2022-08-28T07:31:20.340Z,101269.78
2022-08-28T07:32:38.675Z,101270.65
2022-08-28T07:33:55.584Z,101269.14
2022-08-28T07:35:12.025Z,101265.69
2022-08-28T07:36:29.044Z,101273.70
2022-08-28T07:37:47.855Z,101271.78
2022-08-28T07:39:06.186Z,101270.81
2022-08-28T07:40:22.942Z,101269.52
2022-08-28T07:41:39.503Z,101271.94
2022-08-28T07:42:56.059Z,101269.62
2022-08-28T07:44:12.458Z,101276.77
2022-08-28T07:45:28.943Z,101270.48
2022-08-28T07:46:47.569Z,101272.91
2022-08-28T07:48:10.698Z,101271.94
2022-08-28T07:49:28.211Z,101272.91
2022-08-28T07:50:44.674Z,101276.22
2022-08-28T07:52:01.084Z,101277.98
2022-08-28T07:53:17.774Z,101278.77
2022-08-28T07:54:35.493Z,101280.53
2022-08-28T07:55:51.983Z,101283.91
2022-08-28T07:57:08.366Z,101286.59
2022-08-28T07:58:24.765Z,101284.17
2022-08-28T07:59:42.230Z,101282.14
2022-08-28T08:00:58.724Z,101284.39
2022-08-28T08:02:17.058Z,101282.88
2022-08-28T08:03:35.502Z,101281.12
2022-08-28T08:04:53.846Z,101279.98
2022-08-28T08:06:10.239Z,101278.29
2022-08-28T08:07:28.568Z,101281.41
2022-08-28T08:08:46.930Z,101280.51
2022-08-28T08:10:05.259Z,101283.83
2022-08-28T08:11:22.312Z,101284.30
2022-08-28T08:12:42.269Z,101280.45
2022-08-28T08:13:58.791Z,101285.44
2022-08-28T08:15:15.434Z,101282.86
2022-08-28T08:16:31.824Z,101283.89
2022-08-28T08:17:50.544Z,101284.80
2022-08-28T08:19:06.935Z,101288.17
2022-08-28T08:20:24.236Z,101290.27
2022-08-28T08:21:42.596Z,101289.78
2022-08-28T08:23:00.916Z,101288.07
2022-08-28T08:24:19.750Z,101286.14
2022-08-28T08:25:36.398Z,101302.24
2022-08-28T08:26:59.410Z,101298.69
2022-08-28T08:28:17.918Z,101298.62
2022-08-28T08:29:36.288Z,101300.23
2022-08-28T08:30:54.454Z,101301.36
2022-08-28T08:32:10.909Z,101305.39
2022-08-28T08:33:27.282Z,101302.49
2022-08-28T08:34:45.708Z,101302.72
2022-08-28T08:36:02.101Z,101307.06
2022-08-28T08:37:20.822Z,101305.13
2022-08-28T08:38:39.154Z,101308.41
2022-08-28T08:39:57.528Z,101305.88
2022-08-28T08:41:15.884Z,101304.55
2022-08-28T08:42:32.307Z,101301.66
2022-08-28T08:43:48.974Z,101302.56
2022-08-28T08:45:05.366Z,101298.70
2022-08-28T08:46:23.759Z,101299.41
2022-08-28T08:47:40.208Z,101302.47
2022-08-28T08:48:56.580Z,101303.82
2022-08-28T08:50:13.248Z,101299.80
2022-08-28T08:51:29.619Z,101302.38
2022-08-28T08:52:48.019Z,101298.19
2022-08-28T08:54:06.368Z,101297.55
2022-08-28T08:55:22.761Z,101298.52
2022-08-28T08:56:39.441Z,101297.45
2022-08-28T08:57:55.981Z,101288.64
2022-08-28T08:59:14.373Z,101298.27
2022-08-28T09:00:30.801Z,101296.31
2022-08-28T09:01:49.236Z,101299.72
2022-08-28T09:03:07.963Z,101298.42
2022-08-28T09:04:25.538Z,101301.58
2022-08-28T09:05:42.492Z,101301.23
2022-08-28T09:07:00.866Z,101298.75
2022-08-28T09:08:19.287Z,101298.42
2022-08-28T09:09:36.954Z,101300.91
2022-08-28T09:10:53.451Z,101297.75
2022-08-28T09:12:11.787Z,101305.31
2022-08-28T09:13:28.221Z,101308.31
2022-08-28T09:14:44.605Z,101306.45
2022-08-28T09:16:01.315Z,101310.16
2022-08-28T09:17:19.629Z,101307.73
2022-08-28T09:18:38.439Z,101307.32
2022-08-28T09:19:56.851Z,101309.73
2022-08-28T09:21:15.192Z,101307.58
2022-08-28T09:22:31.862Z,101306.94
2022-08-28T09:23:50.242Z,101304.91
2022-08-28T09:25:09.016Z,101307.09
2022-08-28T09:26:25.765Z,101308.30
2022-08-28T09:27:44.184Z,101305.40
2022-08-28T09:29:02.844Z,101303.62
2022-08-28T09:30:21.175Z,101308.36
2022-08-28T09:31:39.525Z,101308.20
2022-08-28T09:32:57.857Z,101308.52
2022-08-28T09:34:14.477Z,101308.20
2022-08-28T09:35:31.177Z,101309.75
2022-08-28T09:36:49.520Z,101307.56
2022-08-28T09:38:07.857Z,101309.27
2022-08-28T09:39:26.229Z,101311.64
2022-08-28T09:40:42.655Z,101307.72
2022-08-28T09:41:59.350Z,101310.45
2022-08-28T09:43:17.681Z,101309.17
2022-08-28T09:44:34.153Z,101307.56
2022-08-28T09:45:52.515Z,101305.86
2022-08-28T09:47:10.912Z,101302.80
2022-08-28T09:48:27.564Z,101304.80
2022-08-28T09:49:44.045Z,101303.28
2022-08-28T09:51:00.422Z,101301.11
2022-08-28T09:52:23.054Z,101294.60
2022-08-28T09:53:42.055Z,101293.86
2022-08-28T09:55:02.284Z,101302.62
2022-08-28T09:56:21.155Z,101299.41
2022-08-28T09:57:37.677Z,101297.61
2022-08-28T09:58:56.062Z,101302.27
2022-08-28T10:00:12.485Z,101304.79
2022-08-28T10:01:29.213Z,101300.67
2022-08-28T10:02:45.649Z,101301.16
2022-08-28T10:04:02.185Z,101301.06
2022-08-28T10:05:20.551Z,101301.23
2022-08-28T10:06:43.788Z,101301.88
2022-08-28T10:08:02.421Z,101300.19
2022-08-28T10:09:20.767Z,101295.92
2022-08-28T10:10:39.114Z,101296.30
2022-08-28T10:11:55.504Z,101296.88
2022-08-28T10:13:13.944Z,101296.08
2022-08-28T10:14:30.610Z,101298.08
2022-08-28T10:15:47.123Z,101298.66
2022-08-28T10:17:03.504Z,101297.37
2022-08-28T10:18:21.876Z,101293.02
2022-08-28T10:19:38.257Z,101301.20
2022-08-28T10:20:56.877Z,101297.27
2022-08-28T10:22:13.256Z,101299.69
2022-08-28T10:23:31.729Z,101301.06
2022-08-28T10:24:48.095Z,101298.66
2022-08-28T10:26:06.530Z,101299.14
2022-08-28T10:27:23.325Z,101301.69
2022-08-28T10:28:41.741Z,101301.05
2022-08-28T10:30:03.042Z,101296.86
2022-08-28T10:31:20.846Z,101297.02
2022-08-28T10:32:38.283Z,101297.50
2022-08-28T10:33:55.013Z,101297.96
2022-08-28T10:35:13.364Z,101292.33
2022-08-28T10:36:34.538Z,101295.96
2022-08-28T10:37:53.414Z,101289.69
2022-08-28T10:39:09.826Z,101291.36
2022-08-28T10:40:29.029Z,101285.73
2022-08-28T10:41:47.362Z,101283.22
2022-08-28T10:43:05.691Z,101285.80
2022-08-28T10:44:24.080Z,101287.67
2022-08-28T10:45:40.509Z,101289.19
2022-08-28T10:46:58.242Z,101288.70
2022-08-28T10:48:16.711Z,101293.53
2022-08-28T10:49:33.323Z,101292.79
2022-08-28T10:50:49.805Z,101291.50
2022-08-28T10:52:06.293Z,101287.91
2022-08-28T10:53:23.007Z,101290.47
2022-08-28T10:54:41.396Z,101290.86
2022-08-28T10:56:00.779Z,101294.88
2022-08-28T10:57:17.281Z,101296.75
2022-08-28T10:58:33.718Z,101291.09
2022-08-28T10:59:50.524Z,101284.27
2022-08-28T11:01:07.178Z,101283.20
2022-08-28T11:02:25.515Z,101293.03
2022-08-28T11:03:42.615Z,101288.20
2022-08-28T11:04:59.152Z,101290.12
2022-08-28T11:06:17.914Z,101291.97
2022-08-28T11:07:36.279Z,101288.17
2022-08-28T11:08:54.628Z,101289.55
2022-08-28T11:10:12.061Z,101288.09
2022-08-28T11:11:28.556Z,101285.43
2022-08-28T11:12:44.918Z,101284.62
2022-08-28T11:14:01.396Z,101284.95
2022-08-28T11:15:19.769Z,101279.64
2022-08-28T11:16:38.242Z,101281.09
2022-08-28T11:17:57.934Z,101281.16
2022-08-28T11:19:16.335Z,101281.34
2022-08-28T11:20:34.713Z,101282.22
2022-08-28T11:21:53.065Z,101283.09
2022-08-28T11:23:09.856Z,101280.03
2022-08-28T11:24:29.235Z,101287.44
2022-08-28T11:25:46.680Z,101286.14
2022-08-28T11:27:04.302Z,101288.33
2022-08-28T11:28:21.682Z,101287.91
2022-08-28T11:29:40.935Z,101287.78
2022-08-28T11:30:57.370Z,101297.03
2022-08-28T11:32:17.430Z,101286.30
2022-08-28T11:33:33.918Z,101294.12
2022-08-28T11:34:52.348Z,101288.34
2022-08-28T11:36:10.710Z,101284.05
2022-08-28T11:37:29.065Z,101280.84
2022-08-28T11:38:45.473Z,101280.36
2022-08-28T11:40:03.855Z,101281.97
2022-08-28T11:41:20.294Z,101283.31
2022-08-28T11:42:39.053Z,101280.42
2022-08-28T11:43:55.492Z,101280.58
2022-08-28T11:45:13.844Z,101282.84
2022-08-28T11:46:32.217Z,101282.77
2022-08-28T11:47:50.557Z,101283.39
2022-08-28T11:49:09.211Z,101286.16
2022-08-28T11:50:27.559Z,101285.09
2022-08-28T11:51:45.889Z,101286.52
2022-08-28T11:53:04.231Z,101285.25
2022-08-28T11:54:22.608Z,101279.91
2022-08-28T11:55:41.233Z,101276.31
2022-08-28T11:56:59.588Z,101273.25
2022-08-28T11:59:48.671Z,101282.45
2022-08-28T12:01:07.012Z,101281.88
2022-08-28T12:02:25.745Z,101281.16
2022-08-28T12:03:44.084Z,101282.10
2022-08-28T12:05:00.567Z,101279.46
2022-08-28T12:06:17.054Z,101279.59
2022-08-28T12:07:34.564Z,101285.88
2022-08-28T12:08:55.127Z,101282.91
2022-08-28T12:10:13.485Z,101280.02
2022-08-28T12:11:31.886Z,101275.83
2022-08-28T12:12:52.597Z,101275.50
2022-08-28T12:14:11.068Z,101274.45
2022-08-28T12:15:29.771Z,101278.70
2022-08-28T12:16:46.329Z,101276.22
2022-08-28T12:18:03.885Z,101276.45
2022-08-28T12:19:22.305Z,101271.94
2022-08-28T12:20:40.705Z,101274.52
2022-08-28T12:21:57.572Z,101268.14
2022-08-28T12:23:15.916Z,101273.45
2022-08-28T12:24:34.276Z,101276.67
2022-08-28T12:25:52.822Z,101278.70
2022-08-28T12:27:11.206Z,101282.89
2022-08-28T12:28:29.850Z,101283.21
2022-08-28T12:29:48.186Z,101277.80
2022-08-28T12:31:06.607Z,101276.45
2022-08-28T12:32:24.968Z,101273.45
2022-08-28T12:33:41.359Z,101274.02
2022-08-28T12:34:58.053Z,101276.74
2022-08-28T12:36:14.478Z,101268.95
2022-08-28T12:37:36.846Z,101273.20
2022-08-28T12:38:54.572Z,101269.82
2022-08-28T12:40:11.044Z,101263.55
2022-08-28T12:41:27.792Z,101263.55
2022-08-28T12:42:46.730Z,101259.45
2022-08-28T12:44:05.050Z,101260.64
2022-08-28T12:45:21.602Z,101262.09
2022-08-28T12:46:40.047Z,101261.23
2022-08-28T12:47:56.721Z,101268.44
2022-08-28T12:49:13.281Z,101270.62
2022-08-28T12:50:31.209Z,101266.77
2022-08-28T12:51:47.595Z,101266.99
2022-08-28T12:53:04.107Z,101261.77
2022-08-28T12:54:20.919Z,101264.77
2022-08-28T12:55:39.311Z,101254.38
2022-08-28T12:56:57.680Z,101260.55
2022-08-28T12:58:16.028Z,101262.97
2022-08-28T12:59:32.526Z,101264.35
2022-08-28T13:00:49.343Z,101260.81
2022-08-28T13:02:07.814Z,101256.95
2022-08-28T13:03:26.190Z,101258.53
2022-08-28T13:04:44.522Z,101256.95
2022-08-28T13:06:02.911Z,101263.45
2022-08-28T13:07:19.635Z,101259.48
2022-08-28T13:08:37.976Z,101265.77
2022-08-28T13:09:56.334Z,101267.55
2022-08-28T13:11:17.115Z,101267.38
2022-08-28T13:12:37.782Z,101262.00
2022-08-28T13:13:56.740Z,101260.13
2022-08-28T13:15:15.142Z,101255.95
2022-08-28T13:16:36.431Z,101257.08
2022-08-28T13:17:54.795Z,101259.17
2022-08-28T13:19:13.150Z,101255.56
2022-08-28T13:20:29.864Z,101249.45
2022-08-28T13:21:48.224Z,101250.97
2022-08-28T13:23:06.558Z,101249.52
2022-08-28T13:24:23.128Z,101251.45
2022-08-28T13:25:40.429Z,101255.16
2022-08-28T13:26:58.823Z,101255.05
2022-08-28T13:28:17.172Z,101247.81
2022-08-28T13:29:33.623Z,101250.06
2022-08-28T13:30:50.090Z,101250.39
2022-08-28T13:32:06.742Z,101249.84
2022-08-28T13:33:23.121Z,101244.27
2022-08-28T13:34:47.741Z,101248.68
2022-08-28T13:36:04.720Z,101247.56
2022-08-28T13:37:22.115Z,101244.69
2022-08-28T13:38:40.717Z,101248.03
2022-08-28T13:39:59.144Z,101244.11
2022-08-28T13:41:17.566Z,101242.98
2022-08-28T13:42:35.948Z,101239.02
2022-08-28T13:43:54.309Z,101240.64
2022-08-28T13:45:13.010Z,101244.66
2022-08-28T13:46:30.508Z,101238.64
2022-08-28T13:47:46.912Z,101235.10
2022-08-28T13:49:07.282Z,101236.77
2022-08-28T13:50:25.677Z,101241.60
2022-08-28T13:51:42.445Z,101241.86
2022-08-28T13:53:00.971Z,101244.83
2022-08-28T13:54:19.347Z,101247.33
2022-08-28T13:55:38.280Z,101243.47
2022-08-28T13:56:56.680Z,101243.77
2022-08-28T13:58:15.441Z,101232.27
2022-08-28T13:59:31.976Z,101235.14
2022-08-28T14:00:48.524Z,101234.66
2022-08-28T14:02:05.032Z,101238.06
2022-08-28T14:03:23.389Z,101235.39
2022-08-28T14:04:42.057Z,101234.49
2022-08-28T14:05:58.506Z,101232.98
2022-08-28T14:07:14.989Z,101229.11
2022-08-28T14:08:33.369Z,101234.49
2022-08-28T14:09:56.292Z,101233.20
2022-08-28T14:11:15.211Z,101227.28
2022-08-28T14:12:33.337Z,101232.08
2022-08-28T14:13:55.650Z,101223.98
2022-08-28T14:15:12.441Z,101222.73
2022-08-28T14:16:31.219Z,101224.93
2022-08-28T14:17:49.541Z,101225.25
2022-08-28T14:19:05.945Z,101219.62
2022-08-28T14:20:24.458Z,101214.56
2022-08-28T14:21:42.892Z,101217.11
2022-08-28T14:22:59.680Z,101219.45
2022-08-28T14:24:16.139Z,101211.25
2022-08-28T14:25:38.490Z,101219.14
2022-08-28T14:26:54.776Z,101218.11
2022-08-28T14:28:13.106Z,101219.62
2022-08-28T14:29:29.846Z,101219.62
2022-08-28T14:30:48.262Z,101214.41
2022-08-28T14:32:06.661Z,101215.34
2022-08-28T14:33:25.051Z,101216.41
2022-08-28T14:34:41.484Z,101214.70
2022-08-28T14:36:00.193Z,101205.62
2022-08-28T14:37:16.602Z,101217.82
2022-08-28T14:38:34.931Z,101215.60
2022-08-28T14:39:53.878Z,101218.14
2022-08-28T14:41:12.199Z,101215.02
2022-08-28T14:42:28.855Z,101213.73
2022-08-28T14:43:47.195Z,101209.06